Impacts METAR Board
IDs:

KGRK - Killeen-Ft Hood Rgnl, TX, US

Updated at: 1700 UTC 30 Oct 2020
Potential Impact None Slight Moderate High
Time 30/05Z 30/06Z 30/07Z 30/08Z 30/09Z 30/10Z 30/11Z 30/12Z 30/13Z 30/14Z 30/15Z 30/16Z 30/17Z
Temp47 45 44 42 41 40 41 40 43 46 51 54 57
Dewpt41 40 38 38 37 36 36 36 36 37 38 38 37
Altim30.25 30.26 30.25 30.25 30.26 30.25 30.25 30.28 30.29 30.31 30.33 30.34 30.33
VIS9 10 10 10 10 10 10 10 10 10 9 8 8
CIG-- -- -- -- -- -- -- -- -- -- -- -- --
CoverCLRCLRCLRCLRCLRCLRCLRCLRCLRCLRCLRCLRCLR
FltCatVFRVFRVFRVFRVFRVFRVFRVFRVFRVFRVFRVFRVFR
WX--------------------------
WDir103601020350350360350330350350500
WSpd8 5 8 12 7 9 8 6 3 6 6 4 0
WGst-- -- -- -- -- -- -- -- -- -- -- -- --
Raw hourly METARs
KGRK 300458Z AUTO 01008KT 9SM CLR 08/05 A3025 RMK AO2 SLP246 T00830049
KGRK 300558Z AUTO 36005KT 10SM CLR 07/04 A3026 RMK AO2 SLP249 T00710042 10119 20071 401510063 52013
KGRK 300658Z AUTO 01008KT 10SM CLR 07/04 A3025 RMK AO2 SLP246 T00650036
KGRK 300758Z AUTO 02012KT 10SM CLR 05/03 A3025 RMK AO2 SLP245 T00540031
KGRK 300858Z AUTO 35007KT 10SM CLR 05/03 A3026 RMK AO2 SLP248 T00500026 53001
KGRK 300958Z AUTO 35009KT 10SM CLR 04/02 A3025 RMK AO2 SLP245 T00420022
KGRK 301058Z AUTO 36008KT 10SM CLR 05/02 A3025 RMK AO2 SLP245 T00490021
KGRK 301158Z AUTO 35006KT 10SM CLR 05/02 A3028 RMK AO2 SLP256 T00460020 10074 20040 53005
KGRK 301258Z AUTO 33003KT 10SM CLR 06/02 A3029 RMK AO2 SLP259 T00590021
KGRK 301358Z AUTO 35006KT 10SM CLR 08/03 A3031 RMK AO2 SLP266 T00790030
KGRK 301458Z AUTO 35006KT 9SM CLR 11/04 A3033 RMK AO2 SLP272 T01050035 52018
KGRK 301558Z AUTO 05004KT 8SM CLR 12/03 A3034 RMK AO2 SLP275 T01200031
KGRK 301658Z AUTO 00000KT 8SM CLR 14/03 A3033 RMK AO2 SLP272 T01370027



Page loaded:  17:40 UTC  |   10:40 AM Pacific  |   11:40 AM Mountain  |   12:40 PM Central  |   01:40 PM Eastern

 

ADVISORIES

FORECASTS

FORECASTS

OBSERVATIONS

USER TOOLS

ABOUT US